Terminal Aerodrome Forecast
Issued by NWS

Home | Current Version | Previous Version | Text Only | Print | Product List | Glossary On
Versions: 1 2 3 4 5 6 7 8 9 10 11 12 13 14 15 16 17
000
FTUS43 KSGF 261007 AAA
TAFJLN
TAF AMD
KJLN 261007Z 2610/2706 VRB03KT P6SM SCT100
      TEMPO 2610/2613 5SM BR
     FM261500 09005KT P6SM VCTS SCT040CB BKN090
     FM270000 VRB03KT P6SM SCT250=

USA.gov is the U.S. government's official web portal to all federal, state and local government web resources and services.